Peden, North Carolina
Current Conditions -  °F | °C
As of 1:15 AM on Sunday 21 Dec 2014 (Local Time) from KGEV Reporting Station
Overcast Overcast  
Wind Chill: 33°   Ceiling: 900
Heat Index: 33°   Visibility: 7mi
Dew Point: 32°   Wind: 0mph
Humidity: 94%   Direction: NA
Pressure: 30.16"   Gusts: NA
Location:  36.4835°N, 81.3122°W
Report Text: KGEV 210615Z AUTO 00000KT 7SM OVC009 01/00 A3016 RMK AO2 T00080000
Loading
Personal Weather Stations






























Interactive Weather Map New forecast layout! Learn more

10-Day Weather Forecast

Advertisements
Track Severe Weather on mobile